National Weather Service Raw Text Product

Displaying AFOS PIL: TAFFOD Received: 2017-11-15 03:25 UTC


952 
FTUS43 KDMX 150325 AAB
TAFFOD
TAF AMD
KFOD 150325Z 1503/1524 20008KT 3SM -RA BR OVC004
     FM150800 27008KT P6SM OVC007
     FM151100 30011KT P6SM BKN045
     FM151400 31013G19KT P6SM FEW050=